Stevensville, MT (59870)

3:49 AM MDT on October 23, 2014 (GMT -0600)
MPG Ranch - Orchard House | Change Station
CLOSE
Current Station
Personal Weather Station
Location: Florence, MT
Elevation: 3392 ft
Nearby Weather Stations

Elev 3392 ft 46.68 °N, 114.03 °W | Updated 10 minutes ago

Overcast
Overcast
51.9 °F
Feels Like 51.9 °F
N
5.0
Wind Variable Wind from ESE
Gusts 7.0 mph

Today
High -- | Low -- °F
--% Chance of Precip.
Yesterday
High -- | Low -- °F
Precip. -- in
8:05 AM 6:35 PM
Waning Crescent, 0% visible
Pressure 29.88 in
Visibility 10.0 miles
Clouds Mostly Cloudy 6500 ft
Overcast 10000 ft
Dew Point 36 °F
Humidity 55%
Rainfall 0.00 in
Snow Depth Not available.
UV 0.0 out of 12
Pollen 1.60 out of 12
Air Quality Not available.
Flu Activity No Activity
METAR KMSO 230853Z AUTO 34005KT 10SM BKN065 OVC100 12/03 A2990 RMK AO2 SLP119 T01220033 50002

More Conditions Fewer Conditions

Pressure 29.88 in
Visibility 10.0 miles
Clouds Mostly Cloudy 6500 ft
Overcast 10000 ft
Dew Point 36 °F
Humidity 55%
Rainfall 0.00 in
Snow Depth Not available.
UV 0.0 out of 12
Pollen 1.60 out of 12
Air Quality Not available.
Flu Activity No Activity
METAR KMSO 230853Z AUTO 34005KT 10SM BKN065 OVC100 12/03 A2990 RMK AO2 SLP119 T01220033 50002

More Conditions Fewer Conditions

10-Day Weather Forecast

Almanac

Astronomy

Oct. 23, 2014 Rise Set
Actual Time 8:05 AM MDT 6:35 PM MDT
Civil Twilight 7:34 AM MDT 7:06 PM MDT
Nautical Twilight 6:58 AM MDT 7:41 PM MDT
Astronomical Twilight 6:23 AM MDT 8:16 PM MDT
Moon 7:47 AM MDT 6:39 PM MDT
Length of Visible Light 11h 31m
Length of Day
10h 30m
Tomorrow will be 3m 6s shorter.
Waning Crescent, 0% of the Moon is Illuminated
Today
Waning Crescent
Oct 23
New
Oct 30
First Quarter
Nov 6
Full
Nov 14
Last Quarter

Today's Extremes

State Highs State Lows

Community

WunderPhotos

Upload Photos

1,764,199 photos uploaded!

Nearby

Snow Depth

Station Depth Elevation
Daly Creek 0 in 5780 ft
Black Pine 2 in 7210 ft
Combination 0 in 5600 ft
Twelvemile Creek 0 in 5600 ft
Stuart Mountain 2 in 7400 ft

Earthquake Activity

City Distance Mag. Time & Date
No recent earthquake activity has been reported nearby.
Minimum magnitude displayed is 2.5.

Coastal Water Temperatures

Place Temperature
No Stations Reporting

Nearby Weather Stations